McKinney's Hourly Summary for Monday, July 9, 2018
Hour Temp
(f)
RH
(%)
Solar Rad.
(MJ/m2)
Rainfall
(in)
Wind
(mph)
7/9/2018 12:00 AM 76 78 0 0 0.39
7/9/2018 1:00 AM 75 81 0 0 0.26
7/9/2018 2:00 AM 76 84 0 0 3.15
7/9/2018 3:00 AM 75 84 0 0 0.49
7/9/2018 4:00 AM 75 89 0 0 0.09
7/9/2018 5:00 AM 75 89 0 0 0.12
7/9/2018 6:00 AM 75 94 0 0 0
7/9/2018 7:00 AM 74 96 0.02 0 0.22
7/9/2018 8:00 AM 75 90 0.22 0 0.2
7/9/2018 9:00 AM 78 83 0.82 0 2.01
7/9/2018 10:00 AM 79 77 0.66 0 0.62
7/9/2018 11:00 AM 83 59 2.05 0 1.8
7/9/2018 12:00 PM 86 56 2.25 0 2.84
7/9/2018 1:00 PM 85 60 1.73 0 5.89
7/9/2018 2:00 PM 86 51 2.46 0 4.38
7/9/2018 3:00 PM 85 51 1.03 0 5.12
7/9/2018 4:00 PM 83 62 0.45 0 3.16
7/9/2018 5:00 PM 84 63 0.44 0 2.59
7/9/2018 6:00 PM 85 60 1.11 0 3.31
7/9/2018 7:00 PM 86 59 0.71 0 4.66
7/9/2018 8:00 PM 83 58 0.34 0 8.99
7/9/2018 9:00 PM 80 71 0.06 0 4.77
7/9/2018 10:00 PM 78 74 0 0 2.29
7/9/2018 11:00 PM 77 81 0 0 0.82
Data Summary 79 72 14.35 0.00 2.42